Time;durP1;ratioP1;P1;durP2;ratioP2;P2;SDS_P1;SDS_P2;PMS_P1;PMS_P2;Temp;Humidity;BMP_temperature;BMP_pressure;BME280_temperature;BME280_humidity;BME280_pressure;Samples;Min_cycle;Max_cycle;Signal;HPM_P1;HPM_P2
2024/04/19 00:00:58;;;;;;;5.53;3.42;;;;;;;4.98;100.00;100939.72;5416660;26;20215;-75
2024/04/19 00:03:23;;;;;;;;;;;;;;;5.03;100.00;100925.88;5436797;26;20030;-75
2024/04/19 00:05:48;;;;;;;5.27;3.40;;;;;;;4.97;100.00;100921.22;5409164;26;19940;-75
2024/04/19 00:08:14;;;;;;;;;;;;;;;4.98;100.00;100918.38;5438996;26;19995;-74
2024/04/19 00:10:39;;;;;;;6.30;3.85;;;;;;;4.90;100.00;100909.47;5436471;26;20003;-74
2024/04/19 00:13:04;;;;;;;;;;;;;;;4.92;100.00;100899.50;5444372;26;20006;-74
2024/04/19 00:15:30;;;;;;;7.30;3.83;;;;;;;4.88;100.00;100906.97;5438157;26;20323;-74
2024/04/19 00:17:58;;;;;;;;;;;;;;;4.76;100.00;100898.41;5410877;26;20465;-75
2024/04/19 00:20:23;;;;;;;7.70;4.45;;;;;;;4.80;100.00;100893.59;5400786;26;19924;-75
2024/04/19 00:22:49;;;;;;;;;;;;;;;4.74;100.00;100881.72;5408147;26;21329;-76
2024/04/19 00:25:14;;;;;;;9.40;4.70;;;;;;;4.75;100.00;100880.72;5421582;26;20276;-75
2024/04/19 00:27:46;;;;;;;7.15;4.47;;;;;;;4.78;100.00;100868.91;5433882;26;20236;-75
2024/04/19 00:30:11;;;;;;;7.88;4.68;;;;;;;4.80;100.00;100870.44;5465893;26;20003;-74
2024/04/19 00:32:36;;;;;;;;;;;;;;;4.77;100.00;100868.06;5442666;26;20003;-74
2024/04/19 00:35:05;;;;;;;15.40;5.00;;;;;;;4.69;100.00;100852.88;5444190;26;20381;-74
2024/04/19 00:37:32;;;;;;;10.15;5.00;;;;;;;4.75;100.00;100854.06;5424626;26;20051;-75
2024/04/19 00:39:57;;;;;;;8.57;5.20;;;;;;;4.73;100.00;100856.03;5415921;26;20696;-75
2024/04/19 00:42:24;;;;;;;;;;;;;;;4.73;100.00;100849.88;5433358;26;20002;-74
2024/04/19 00:44:49;;;;;;;9.13;4.80;;;;;;;4.67;100.00;100841.53;5423544;26;19925;-74
2024/04/19 00:47:15;;;;;;;;;;;;;;;4.65;100.00;100824.84;5412107;26;20017;-74
2024/04/19 00:49:41;;;;;;;7.85;4.75;;;;;;;4.64;100.00;100835.69;5431620;26;19948;-74
2024/04/19 00:52:07;;;;;;;10.10;4.43;;;;;;;4.60;100.00;100824.47;5418231;26;20465;-75
2024/04/19 00:54:32;;;;;;;;;;;;;;;4.60;100.00;100813.81;5376146;26;20014;-74
2024/04/19 00:56:58;;;;;;;9.05;4.65;;;;;;;4.60;100.00;100803.16;5406657;26;20245;-74
2024/04/19 00:59:24;;;;;;;;;;;;;;;4.62;100.00;100793.16;5407705;26;20475;-75
2024/04/19 01:01:49;;;;;;;6.50;4.90;;;;;;;4.62;100.00;100790.50;5403985;26;19931;-74
2024/04/19 01:04:15;;;;;;;7.80;4.75;;;;;;;4.66;100.00;100785.69;5440680;26;19999;-74
2024/04/19 01:06:41;;;;;;;8.25;5.00;;;;;;;4.55;100.00;100784.97;5392849;26;20011;-76
2024/04/19 01:09:06;;;;;;;;;;;;;;;4.63;100.00;100778.84;5426240;26;20457;-74
2024/04/19 01:11:31;;;;;;;6.33;4.57;;;;;;;4.64;100.00;100777.84;5400862;26;19956;-74
2024/04/19 01:13:57;;;;;;;;;;;;;;;4.61;100.00;100772.81;5434350;26;20007;-74
2024/04/19 01:16:22;;;;;;;6.00;4.27;;;;;;;4.59;100.00;100769.47;5432370;26;19928;-75
2024/04/19 01:18:49;;;;;;;;;;;;;;;4.60;100.00;100763.16;5460472;26;20018;-74
2024/04/19 01:21:14;;;;;;;8.80;5.47;;;;;;;4.57;100.00;100758.16;5437687;26;20374;-74
2024/04/19 01:23:40;;;;;;;;;;;;;;;4.53;100.00;100759.47;5421746;26;20026;-73
2024/04/19 01:26:05;;;;;;;7.73;5.70;;;;;;;4.48;100.00;100751.97;5427136;26;19924;-74
2024/04/19 01:28:30;;;;;;;;;;;;;;;4.48;100.00;100740.44;5440159;26;20027;-75
2024/04/19 01:30:56;;;;;;;9.10;6.00;;;;;;;4.45;100.00;100741.59;5442379;26;19925;-74
2024/04/19 01:33:21;;;;;;;;;;;;;;;4.59;100.00;100726.81;5436654;26;20385;-74
2024/04/19 01:35:46;;;;;;;9.30;6.57;;;;;;;4.54;100.00;100715.81;5426721;26;19931;-74
2024/04/19 01:38:11;;;;;;;;;;;;;;;4.57;100.00;100715.50;5437275;26;20154;-74
2024/04/19 01:40:37;;;;;;;9.80;6.27;;;;;;;4.60;100.00;100707.16;5394919;26;19974;-74
2024/04/19 01:43:03;;;;;;;;;;;;;;;4.58;100.00;100711.00;5434418;26;20367;-74
2024/04/19 01:45:28;;;;;;;9.88;6.63;;;;;;;4.55;100.00;100704.16;5431357;26;19931;-75
2024/04/19 01:47:53;;;;;;;;;;;;;;;4.60;100.00;100701.81;5450948;26;20371;-74
2024/04/19 01:50:19;;;;;;;8.50;6.30;;;;;;;4.53;100.00;100698.16;5432557;26;20039;-75
2024/04/19 01:52:46;;;;;;;;;;;;;;;4.51;100.00;100702.81;5409453;26;20022;-74
2024/04/19 01:55:11;;;;;;;12.20;6.77;;;;;;;4.46;100.00;100679.31;5427626;26;19994;-74
2024/04/19 01:57:36;;;;;;;;;;;;;;;4.51;100.00;100681.47;5408886;26;20007;-74
2024/04/19 02:00:02;;;;;;;9.13;7.10;;;;;;;4.41;100.00;100678.94;5445684;26;20436;-74
2024/04/19 02:02:28;;;;;;;;;;;;;;;4.37;100.00;100681.09;5415843;26;20024;-74
2024/04/19 02:04:58;;;;;;;9.85;7.60;;;;;;;4.43;100.00;100673.44;5460048;26;20360;-75
2024/04/19 02:07:23;;;;;;;10.40;7.57;;;;;;;4.50;100.00;100661.97;5412726;26;20003;-74
2024/04/19 02:09:48;;;;;;;;;;;;;;;4.54;100.00;100654.50;5428298;26;20078;-74
2024/04/19 02:12:14;;;;;;;8.20;6.87;;;;;;;4.50;100.00;100653.97;5413807;26;19932;-74
2024/04/19 02:14:39;;;;;;;;;;;;;;;4.57;100.00;100648.84;5407680;26;20368;-73
2024/04/19 02:17:10;;;;;;;10.83;7.37;;;;;;;4.61;100.00;100623.50;5449629;26;19929;-73
2024/04/19 02:19:36;;;;;;;11.00;7.93;;;;;;;4.58;100.00;100629.19;5458669;26;20033;-73
2024/04/19 02:22:03;;;;;;;9.48;7.80;;;;;;;4.51;100.00;100622.84;5422607;26;20011;-72
2024/04/19 02:24:29;;;;;;;11.32;8.00;;;;;;;4.47;100.00;100616.16;5415270;26;20019;-74
2024/04/19 02:26:54;;;;;;;;;;;;;;;4.58;100.00;100599.88;5418590;26;20195;-73
2024/04/19 02:32:03;;;;;;;11.90;6.85;;;;;;;4.60;100.00;100576.53;5414326;26;20271;-73
2024/04/19 02:34:29;;;;;;;;;;;;;;;4.60;100.00;100559.72;5435972;26;20447;-73
2024/04/19 02:36:54;;;;;;;9.27;6.90;;;;;;;4.62;100.00;100566.53;5431560;26;19965;-73
2024/04/19 02:39:20;;;;;;;10.73;7.70;;;;;;;4.64;100.00;100551.19;5405910;26;20010;-72
2024/04/19 02:41:45;;;;;;;;;;;;;;;4.60;100.00;100551.72;5457055;26;20022;-73
2024/04/19 02:44:10;;;;;;;10.00;8.00;;;;;;;4.60;100.00;100549.84;5422896;26;19931;-73
2024/04/19 02:46:36;;;;;;;9.38;7.28;;;;;;;4.62;100.00;100539.06;5459276;26;20776;-72
2024/04/19 02:49:01;;;;;;;;;;;;;;;4.69;100.00;100535.56;5445936;26;20011;-72
2024/04/19 02:51:26;;;;;;;8.57;7.43;;;;;;;4.69;100.00;100524.03;5445220;26;20352;-72
2024/04/19 02:53:51;;;;;;;;;;;;;;;4.63;100.00;100509.53;5414200;26;20601;-73
2024/04/19 02:56:17;;;;;;;11.93;8.47;;;;;;;4.63;100.00;100522.88;5421608;26;19924;-72
2024/04/19 02:58:42;;;;;;;;;;;;;;;4.66;100.00;100511.06;5437436;26;20024;-72
2024/04/19 03:01:07;;;;;;;11.95;8.60;;;;;;;4.60;100.00;100512.53;5421049;26;19989;-73
2024/04/19 03:03:33;;;;;;;;;;;;;;;4.61;100.00;100502.72;5444691;26;20334;-73
2024/04/19 03:05:59;;;;;;;11.87;8.63;;;;;;;4.59;100.00;100504.72;5445211;26;19924;-73
2024/04/19 03:08:25;;;;;;;;;;;;;;;4.60;100.00;100501.88;5429202;26;20336;-74
2024/04/19 03:10:51;;;;;;;11.70;9.23;;;;;;;4.57;100.00;100499.56;5410378;26;19925;-72
2024/04/19 03:13:16;;;;;;;;;;;;;;;4.65;100.00;100494.22;5408602;26;20072;-73
2024/04/19 03:15:44;;;;;;;11.73;9.33;;;;;;;4.59;100.00;100481.53;5403656;26;19924;-72
2024/04/19 03:18:10;;;;;;;13.63;10.57;;;;;;;4.60;100.00;100491.22;5430376;26;20018;-73
2024/04/19 03:20:35;;;;;;;;;;;;;;;4.63;100.00;100477.53;5436694;26;19999;-73
2024/04/19 03:23:00;;;;;;;12.07;9.63;;;;;;;4.61;100.00;100474.22;5443764;26;19957;-73
2024/04/19 03:25:26;;;;;;;;;;;;;;;4.70;100.00;100473.22;5445221;26;20011;-72
2024/04/19 03:27:51;;;;;;;13.52;10.55;;;;;;;4.63;100.00;100471.41;5450837;26;19923;-72
2024/04/19 03:30:43;;;;;;;;;;;;;;;4.66;100.00;100460.41;5437798;26;20028;-73
2024/04/19 03:33:08;;;;;;;11.15;9.38;;;;;;;4.63;100.00;100450.88;5432562;26;19925;-73
2024/04/19 03:35:38;;;;;;;;;;;;;;;4.68;100.00;100447.72;5444985;26;20010;-74
2024/04/19 03:38:04;;;;;;;9.68;8.23;;;;;;;4.72;100.00;100442.91;5446282;26;19931;-72
2024/04/19 03:40:29;;;;;;;;;;;;;;;4.72;100.00;100435.72;5459725;26;19999;-71
2024/04/19 03:42:58;;;;;;;11.67;7.97;;;;;;;4.70;100.00;100430.56;5421210;26;20551;-74
2024/04/19 03:45:43;;;;;;;11.15;8.43;;;;;;;4.62;100.00;100427.88;5434124;26;20003;-71
2024/04/19 03:48:09;;;;;;;9.25;7.95;;;;;;;4.66;100.00;100407.91;5444385;26;20038;-72
2024/04/19 03:50:35;;;;;;;;;;;;;;;4.70;100.00;100414.56;5458289;26;20075;-72
2024/04/19 03:53:00;;;;;;;10.70;7.85;;;;;;;4.70;100.00;100419.91;5445462;26;19931;-72
2024/04/19 03:55:26;;;;;;;;;;;;;;;4.66;100.00;100402.56;5449127;26;20414;-73
2024/04/19 03:57:51;;;;;;;10.93;8.35;;;;;;;4.61;100.00;100410.22;5454608;26;19925;-73
2024/04/19 04:00:17;;;;;;;;;;;;;;;4.64;100.00;100393.09;5443448;26;20025;-74
2024/04/19 04:02:42;;;;;;;10.13;7.93;;;;;;;4.69;100.00;100388.91;5443160;26;19924;-73
2024/04/19 04:05:08;;;;;;;10.30;8.70;;;;;;;4.70;100.00;100384.38;5423326;26;20007;-73
2024/04/19 04:07:33;;;;;;;;;;;;;;;4.73;100.00;100377.91;5407224;26;20008;-73
2024/04/19 04:10:00;;;;;;;11.73;8.43;;;;;;;4.73;100.00;100385.91;5420956;26;19960;-73
2024/04/19 04:12:29;;;;;;;11.45;8.65;;;;;;;4.68;100.00;100365.91;5442768;26;19998;-73
2024/04/19 04:14:55;;;;;;;10.77;8.55;;;;;;;4.69;100.00;100372.91;5459036;26;20482;-73
2024/04/19 04:17:20;;;;;;;;;;;;;;;4.69;100.00;100370.25;5444648;26;19998;-72
2024/04/19 04:19:46;;;;;;;13.87;10.43;;;;;;;4.70;100.00;100366.56;5412475;26;19936;-73
2024/04/19 04:22:11;;;;;;;;;;;;;;;4.67;100.00;100366.91;5407549;26;20057;-74
2024/04/19 04:24:36;;;;;;;14.57;9.97;;;;;;;4.68;100.00;100365.91;5400522;26;20211;-72
2024/04/19 04:27:02;;;;;;;;;;;;;;;4.64;100.00;100351.25;5414712;26;20470;-73
2024/04/19 04:29:29;;;;;;;15.27;11.93;;;;;;;4.63;100.00;100348.75;5404578;26;20281;-72
2024/04/19 04:31:54;;;;;;;14.98;11.90;;;;;;;4.63;100.00;100346.91;5439465;26;20704;-73
2024/04/19 04:34:19;;;;;;;;;;;;;;;4.67;100.00;100334.91;5451766;26;20017;-72
2024/04/19 04:36:45;;;;;;;17.10;12.00;;;;;;;4.75;100.00;100317.22;5468533;26;20012;-73
2024/04/19 04:39:10;;;;;;;;;;;;;;;4.77;100.00;100334.72;5428709;26;20004;-73
2024/04/19 04:41:39;;;;;;;16.83;12.53;;;;;;;4.76;100.00;100324.22;5410380;26;19925;-73
2024/04/19 04:44:10;;;;;;;18.17;14.05;;;;;;;4.74;100.00;100328.91;5405369;26;20014;-73
2024/04/19 04:46:36;;;;;;;17.45;13.15;;;;;;;4.85;100.00;100326.66;5408154;26;19999;-72
2024/04/19 04:49:01;;;;;;;;;;;;;;;4.79;100.00;100310.53;5421334;26;19995;-73
2024/04/19 04:51:26;;;;;;;18.25;14.57;;;;;;;4.76;100.00;100326.91;5452803;26;19924;-73
2024/04/19 04:53:52;;;;;;;;;;;;;;;4.79;100.00;100313.19;5451657;26;20076;-73
2024/04/19 04:56:17;;;;;;;17.15;12.45;;;;;;;4.89;100.00;100295.16;5436753;26;19931;-74
2024/04/19 04:58:43;;;;;;;;;;;;;;;4.89;100.00;100311.19;5416257;26;20018;-74
2024/04/19 05:01:11;;;;;;;14.80;11.30;;;;;;;4.94;100.00;100303.47;5433740;26;19924;-73
2024/04/19 05:03:37;;;;;;;15.57;12.88;;;;;;;4.97;100.00;100308.47;5444741;26;20422;-74
2024/04/19 05:06:02;;;;;;;;;;;;;;;4.98;100.00;100304.78;5440600;26;20010;-73
2024/04/19 05:08:30;;;;;;;14.82;11.43;;;;;;;4.97;100.00;100308.47;5442494;26;19924;-73
2024/04/19 05:10:56;;;;;;;15.38;11.35;;;;;;;4.91;100.00;100303.00;5405014;26;20073;-73
2024/04/19 05:13:22;;;;;;;15.55;12.27;;;;;;;4.97;100.00;100296.97;5395325;26;20000;-73
2024/04/19 05:15:49;;;;;;;;;;;;;;;5.07;100.00;100288.75;5399300;26;20019;-73
2024/04/19 05:18:17;;;;;;;;;;;;;;;5.03;100.00;100301.59;5432578;26;20342;-74
2024/04/19 05:20:45;;;;;;;13.55;10.85;;;;;;;5.05;100.00;100298.75;5411379;26;19925;-73
2024/04/19 05:23:10;;;;;;;15.40;11.40;;;;;;;5.02;100.00;100313.28;5441409;26;20554;-73
2024/04/19 05:25:36;;;;;;;;;;;;;;;5.07;100.00;100307.44;5444434;26;20016;-73
2024/04/19 05:28:01;;;;;;;15.35;9.98;;;;;;;5.07;100.00;100291.41;5419293;26;19925;-73
2024/04/19 05:30:27;;;;;;;11.73;9.80;;;;;;;5.12;100.00;100283.69;5397145;26;20027;-72
2024/04/19 05:32:53;;;;;;;12.70;10.05;;;;;;;5.13;100.00;100296.03;5410085;26;19994;-73
2024/04/19 05:35:18;;;;;;;;;;;;;;;5.13;100.00;100274.69;5441463;26;20426;-73
2024/04/19 05:37:46;;;;;;;13.43;9.60;;;;;;;5.10;100.00;100285.75;5461736;26;19931;-74
2024/04/19 05:40:12;;;;;;;14.43;9.57;;;;;;;5.09;100.00;100290.22;5439274;26;20015;-73
2024/04/19 05:42:37;;;;;;;;;;;;;;;5.13;100.00;100296.03;5419395;26;20002;-73
2024/04/19 05:45:03;;;;;;;13.17;8.87;;;;;;;5.16;100.00;100290.34;5398302;26;20665;-73
2024/04/19 05:47:28;;;;;;;;;;;;;;;5.28;100.00;100277.44;5411295;26;20364;-73
2024/04/19 05:49:56;;;;;;;11.60;7.95;;;;;;;5.26;100.00;100272.31;5413387;26;20503;-73
2024/04/19 05:52:22;;;;;;;11.85;7.78;;;;;;;5.38;100.00;100264.72;5416516;26;20930;-73
2024/04/19 05:54:47;;;;;;;;;;;;;;;5.41;100.00;100271.53;5433225;26;20010;-73
2024/04/19 05:57:16;;;;;;;10.02;8.60;;;;;;;5.39;100.00;100270.88;5431253;26;19985;-73
2024/04/19 05:59:41;;;;;;;10.23;8.15;;;;;;;5.43;100.00;100267.66;5430598;26;19995;-73
2024/04/19 06:02:06;;;;;;;;;;;;;;;5.47;100.00;100273.50;5401726;26;20334;-73
2024/04/19 06:04:32;;;;;;;10.93;7.87;;;;;;;5.49;100.00;100273.31;5425095;26;19993;-73
2024/04/19 06:06:57;;;;;;;;;;;;;;;5.46;100.00;100269.19;5429260;26;20528;-73
2024/04/19 06:09:23;;;;;;;9.57;7.57;;;;;;;5.46;100.00;100264.66;5430821;26;19929;-73
2024/04/19 06:11:49;;;;;;;10.30;8.02;;;;;;;5.52;100.00;100262.28;5442119;26;20448;-74
2024/04/19 06:14:14;;;;;;;;;;;;;;;5.59;100.00;100266.72;5408004;26;20445;-73
2024/04/19 06:16:40;;;;;;;10.85;7.47;;;;;;;5.64;100.00;100260.03;5439500;26;19931;-73
2024/04/19 06:19:05;;;;;;;;;;;;;;;5.68;100.00;100258.63;5461995;26;19999;-79
2024/04/19 06:21:31;;;;;;;9.23;7.05;;;;;;;5.71;100.00;100266.31;5439464;26;19936;-74
2024/04/19 06:23:56;;;;;;;;;;;;;;;5.78;100.00;100261.91;5461294;26;20080;-73
2024/04/19 06:26:21;;;;;;;11.10;7.33;;;;;;;5.85;100.00;100268.19;5417033;26;20325;-73
2024/04/19 06:28:56;;;;;;;;;;;;;;;5.85;100.00;100260.16;5409900;26;20342;-72
2024/04/19 06:31:21;;;;;;;8.93;7.05;;;;;;;5.87;100.00;100266.16;5404397;26;19925;-73
2024/04/19 06:33:46;;;;;;;;;;;;;;;5.91;100.00;100262.13;5407451;26;20011;-73
2024/04/19 06:36:11;;;;;;;;;;;;;;;5.96;100.00;100263.44;5405104;26;19940;-74
2024/04/19 06:38:37;;;;;;;;;;;;;;;6.01;100.00;100261.91;5406574;26;20253;-73
2024/04/19 06:41:02;;;;;;;;;;;;;;;6.06;100.00;100264.88;5408186;26;19925;-74
2024/04/19 06:43:27;;;;;;;;;;;;;;;6.18;100.00;100251.88;5447935;26;20320;-74
2024/04/19 06:45:56;;;;;;;;;;;;;;;6.20;100.00;100246.34;5420130;26;19931;-74
2024/04/19 06:48:22;;;;;;;;;;;;;;;6.26;100.00;100252.81;5457089;26;19924;-73
2024/04/19 06:50:47;;;;;;;;;;;;;;;6.39;100.00;100261.00;5422772;26;20004;-72
2024/04/19 06:53:12;;;;;;;;;;;;;;;6.38;100.00;100254.00;5464032;26;19924;-73
2024/04/19 06:55:37;;;;;;;;;;;;;;;6.44;100.00;100260.47;5440850;26;19931;-72
2024/04/19 06:58:03;;;;;;;;;;;;;;;6.60;100.00;100254.94;5424932;26;19931;-74
2024/04/19 07:00:28;;;;;;;;;;;;;;;6.73;100.00;100253.44;5411015;26;20333;-73
2024/04/19 07:02:53;;;;;;;;;;;;;;;6.86;100.00;100252.78;5419171;26;19933;-73
2024/04/19 07:05:18;;;;;;;;;;;;;;;7.05;100.00;100252.19;5433388;26;19931;-73
2024/04/19 07:07:47;;;;;;;;;;;;;;;7.26;100.00;100245.19;5430860;26;19925;-75
2024/04/19 07:10:12;;;;;;;;;;;;;;;7.35;100.00;100241.38;5410727;26;19949;-73
2024/04/19 07:12:38;;;;;;;;;;;;;;;7.54;100.00;100247.13;5444934;26;19931;-72
2024/04/19 07:15:03;;;;;;;;;;;;;;;7.43;100.00;100243.91;5460049;26;19931;-72
2024/04/19 07:17:28;;;;;;;;;;;;;;;7.54;100.00;100247.13;5445872;26;19943;-73
2024/04/19 07:19:54;;;;;;;;;;;;;;;7.51;100.00;100247.50;5429302;26;20356;-72
2024/04/19 07:22:19;;;;;;;;;;;;;;;7.66;100.00;100248.25;5406334;26;20433;-73
2024/04/19 07:24:44;;;;;;;;;;;;;;;7.83;100.00;100242.59;5408033;26;20689;-73
2024/04/19 07:27:09;;;;;;;;;;;;;;;7.89;100.00;100258.75;5423004;26;19993;-74
2024/04/19 07:29:34;;;;;;;;;;;;;;;7.91;100.00;100260.41;5445678;26;20018;-73
2024/04/19 07:32:00;;;;;;;;;;;;;;;8.04;100.00;100250.63;5416772;26;20349;-73
2024/04/19 07:34:27;;;;;;;;;;;;;;;8.12;100.00;100246.97;5403299;26;20357;-74
2024/04/19 07:37:01;;;;;;;;;;;;;;;8.02;100.00;100246.47;5424788;26;19924;-72
2024/04/19 07:39:26;;;;;;;;;;;;;;;8.15;100.00;100235.84;5434330;26;19924;-72
2024/04/19 07:41:52;;;;;;;;;;;;;;;8.14;100.00;100241.38;5440790;26;19994;-72
2024/04/19 07:44:17;;;;;;;;;;;;;;;8.13;100.00;100237.03;5431018;26;19948;-72
2024/04/19 07:46:42;;;;;;;;;;;;;;;8.26;100.00;100242.50;5410799;26;19939;-73
2024/04/19 07:49:07;;;;;;;;;;;;;;;8.47;100.00;100243.47;5409890;26;20257;-73
2024/04/19 07:51:32;;;;;;;;;;;;;;;8.73;100.00;100237.44;5412052;26;20318;-73
2024/04/19 07:53:58;;;;;;;;;;;;;;;8.87;100.00;100238.28;5410076;26;19944;-72
2024/04/19 07:56:24;;;;;;;;;;;;;;;8.90;100.00;100245.13;5444728;26;20321;-72
2024/04/19 07:58:49;;;;;;;;;;;;;;;8.77;100.00;100237.84;5444651;26;19924;-73
2024/04/19 08:01:14;;;;;;;;;;;;;;;8.93;100.00;100242.03;5445796;26;19933;-73
2024/04/19 08:03:41;;;;;;;;;;;;;;;8.98;100.00;100238.75;5446089;26;19932;-73
2024/04/19 08:06:06;;;;;;;;;;;;;;;9.03;100.00;100233.59;5443640;26;19928;-74
2024/04/19 08:08:34;;;;;;;;;;;;;;;8.96;100.00;100236.25;5441904;26;19997;-72
2024/04/19 08:11:01;;;;;;;;;;;;;;;8.80;100.00;100222.16;5408308;26;19925;-72
2024/04/19 08:13:26;;;;;;;;;;;;;;;8.84;100.00;100216.41;5409107;26;21544;-73
2024/04/19 08:15:51;;;;;;;;;;;;;;;8.77;100.00;100217.19;5407624;26;19933;-73
2024/04/19 08:18:17;;;;;;;;;;;;;;;8.77;100.00;100219.06;5408797;26;20348;-73
2024/04/19 08:20:42;;;;;;;;;;;;;;;8.67;100.00;100218.59;5403603;26;20633;-73
2024/04/19 08:23:07;;;;;;;;;;;;;;;8.49;100.00;100215.44;5430807;26;19932;-73
2024/04/19 08:25:32;;;;;;;;;;;;;;;8.39;100.00;100214.94;5409627;26;19932;-72
2024/04/19 08:27:58;;;;;;;;;;;;;;;8.38;100.00;100205.25;5408105;26;20281;-74
2024/04/19 08:30:23;;;;;;;;;;;;;;;8.23;100.00;100221.47;5411766;26;20237;-71
2024/04/19 08:32:49;;;;;;;;;;;;;;;8.23;100.00;100216.09;5445509;26;19936;-72
2024/04/19 08:35:14;;;;;;;;;;;;;;;8.14;100.00;100219.94;5442973;26;20025;-72
2024/04/19 08:37:39;;;;;;;;;;;;;;;8.09;100.00;100225.09;5443388;26;20620;-74
2024/04/19 08:40:05;;;;;;;;;;;;;;;8.12;100.00;100227.38;5445465;26;20348;-72
2024/04/19 08:42:30;;;;;;;;;;;;;;;7.87;100.00;100233.16;5443871;26;20409;-72
2024/04/19 08:44:56;;;;;;;;;;;;;;;7.76;100.00;100229.16;5412032;26;19925;-72
2024/04/19 08:47:24;;;;;;;;;;;;;;;7.61;100.00;100226.56;5406780;26;19990;-73
2024/04/19 08:49:49;;;;;;;;;;;;;;;7.49;100.00;100230.78;5404247;26;19937;-71
2024/04/19 08:52:15;;;;;;;;;;;;;;;7.44;100.00;100226.81;5407968;26;19932;-73
2024/04/19 08:54:40;;;;;;;;;;;;;;;7.40;100.00;100230.09;5407196;26;20361;-73
2024/04/19 08:57:08;;;;;;;;;;;;;;;7.41;100.00;100235.22;5412021;26;19924;-71
2024/04/19 08:59:33;;;;;;;;;;;;;;;7.30;100.00;100238.44;5407060;26;19929;-73
2024/04/19 09:01:58;;;;;;;;;;;;;;;7.17;100.00;100227.59;5417296;26;20392;-73
2024/04/19 09:04:24;;;;;;;;;;;;;;;7.16;100.00;100226.75;5415518;26;20332;-72
2024/04/19 09:06:49;;;;;;;;;;;;;;;7.23;100.00;100230.34;5430661;26;20344;-72
2024/04/19 09:09:15;;;;;;;;;;;;;;;7.31;100.00;100237.41;5444937;26;19925;-72
2024/04/19 09:11:40;;;;;;;;;;;;;;;7.53;100.00;100232.06;5433142;26;19925;-71
2024/04/19 09:14:06;;;;;;;;;;;;;;;7.78;100.00;100234.31;5440712;26;20340;-71
2024/04/19 09:16:32;;;;;;;;;;;;;;;7.94;100.00;100243.94;5453073;26;19932;-72
2024/04/19 09:18:57;;;;;;;;;;;;;;;7.82;100.00;100247.16;5438703;26;20019;-72
2024/04/19 09:21:22;;;;;;;;;;;;;;;8.03;100.00;100242.78;5417169;26;20356;-72
2024/04/19 09:23:47;;;;;;;;;;;;;;;8.07;100.00;100238.66;5425139;26;19937;-72
2024/04/19 09:26:16;;;;;;;;;;;;;;;7.97;100.00;100233.66;5386043;26;19938;-72
2024/04/19 09:28:46;;;;;;;;;;;;;;;8.03;100.00;100243.59;5383556;26;19926;-73
2024/04/19 09:31:11;;;;;;;;;;;;;;;8.09;100.00;100235.81;5439631;26;19925;-72
2024/04/19 09:33:41;;;;;;;;;;;;;;;8.21;100.00;100239.59;5416933;26;20480;-71
2024/04/19 09:36:06;;;;;;;;;;;;;;;8.35;100.00;100235.16;5418727;26;19932;-73
2024/04/19 09:38:32;;;;;;;;;;;;;;;8.63;100.00;100229.75;5456445;26;20037;-72
2024/04/19 09:40:57;;;;;;;;;;;;;;;8.82;100.00;100235.41;5405034;26;19925;-72
2024/04/19 09:43:25;;;;;;;;;;;;;;;8.99;100.00;100233.19;5427319;26;20337;-72
2024/04/19 09:45:53;;;;;;;;;;;;;;;9.02;100.00;100234.63;5413504;26;19925;-71
2024/04/19 09:48:21;;;;;;;;;;;;;;;8.90;100.00;100232.53;5426792;26;19936;-72
2024/04/19 09:50:49;;;;;;;;;;;;;;;8.75;100.00;100235.34;5442584;26;20252;-72
2024/04/19 09:53:20;;;;;;;;;;;;;;;8.73;100.00;100229.38;5440154;26;19956;-71
2024/04/19 09:55:48;;;;;;;;;;;;;;;8.94;100.00;100230.25;5436411;26;19923;-71
2024/04/19 09:58:13;;;;;;;;;;;;;;;8.94;100.00;100228.41;5366576;26;20026;-72
2024/04/19 10:00:38;;;;;;;;;;;;;;;8.92;100.00;100224.25;5409423;26;19984;-71
2024/04/19 10:03:08;;;;;;;;;;;;;;;9.18;100.00;100217.31;5400955;26;19924;-72
2024/04/19 10:05:33;;;;;;;;;;;;;;;9.51;100.00;100212.00;5425741;26;19956;-72
2024/04/19 10:07:59;;;;;;;;;;;;;;;9.69;100.00;100202.50;5402982;26;19924;-71
2024/04/19 10:10:24;;;;;;;;;;;;;;;9.77;100.00;100196.09;5405310;26;20025;-72
2024/04/19 10:12:49;;;;;;;;;;;;;;;9.82;100.00;100191.72;5447865;26;19924;-72
2024/04/19 10:15:18;;;;;;;;;;;;;;;9.81;100.00;100194.59;5424060;26;20070;-72
2024/04/19 10:17:43;;;;;;;;;;;;;;;9.53;100.00;100199.16;5421631;26;19948;-72
2024/04/19 10:20:09;;;;;;;;;;;;;;;10.28;100.00;100203.44;5422124;26;19924;-71
2024/04/19 10:22:35;;;;;;;;;;;;;;;11.07;100.00;100202.50;5398556;26;20267;-72
2024/04/19 10:25:00;;;;;;;;;;;;;;;11.30;96.66;100193.03;5398566;26;19935;-71
2024/04/19 10:27:27;;;;;;;;;;;;;;;12.22;99.13;100197.84;5431119;26;19923;-71
2024/04/19 10:29:52;;;;;;;;;;;;;;;11.97;89.92;100190.63;5428594;26;19933;-70
2024/04/19 10:32:18;;;;;;;;;;;;;;;11.53;90.32;100181.66;5399281;26;20287;-70
2024/04/19 10:34:43;;;;;;;;;;;;;;;11.51;95.47;100181.06;5391182;26;19925;-71
2024/04/19 10:37:08;;;;;;;;;;;;;;;11.50;95.48;100180.25;5401258;26;19932;-71
2024/04/19 10:39:37;;;;;;;;;;;;;;;12.46;93.05;100187.22;5419472;26;19932;-71
2024/04/19 10:42:02;;;;;;;;;;;;;;;12.50;88.63;100177.63;5413258;26;19956;-71
2024/04/19 10:44:31;;;;;;;;;;;;;;;12.91;91.93;100168.97;5415484;26;19961;-70
2024/04/19 10:46:56;;;;;;;;;;;;;;;12.78;83.80;100165.41;5404284;26;19932;-71
2024/04/19 10:49:22;;;;;;;;;;;;;;;12.73;85.46;100154.47;5413459;26;20557;-73
2024/04/19 10:51:56;;;;;;;;;;;;;;;11.83;84.19;100154.84;5424271;26;20006;-74
2024/04/19 10:54:42;;;;;;;;;;;;;;;11.62;90.45;100150.72;5410452;26;19937;-72
2024/04/19 10:57:17;;;;;;;;;;;;;;;11.03;90.98;100147.44;5393486;26;19936;-71
2024/04/19 10:59:43;;;;;;;;;;;;;;;10.49;91.97;100152.28;5413800;26;19933;-71
2024/04/19 11:02:09;;;;;;;;;;;;;;;9.81;98.76;100146.22;5380612;26;19965;-70
2024/04/19 11:04:36;;;;;;;;;;;;;;;9.48;100.00;100147.94;5412719;26;19933;-70
2024/04/19 11:07:01;;;;;;;;;;;;;;;9.17;100.00;100146.69;5403488;26;20427;-70
2024/04/19 11:09:26;;;;;;;;;;;;;;;8.88;100.00;100147.88;5398439;26;20939;-70
2024/04/19 11:11:52;;;;;;;;;;;;;;;8.77;100.00;100152.78;5386933;26;19931;-71
2024/04/19 11:14:19;;;;;;;;;;;;;;;8.65;100.00;100149.84;5409489;26;19929;-70
2024/04/19 11:16:44;;;;;;;;;;;;;;;8.78;100.00;100142.91;5407297;26;19948;-70
2024/04/19 11:19:09;;;;;;;;;;;;;;;8.86;100.00;100156.13;5424250;26;20406;-71
2024/04/19 11:21:35;;;;;;;;;;;;;;;9.11;100.00;100163.59;5409470;26;20235;-71
2024/04/19 11:24:00;;;;;;;;;;;;;;;9.36;100.00;100160.31;5418376;26;19925;-72
2024/04/19 11:26:25;;;;;;;;;;;;;;;9.72;100.00;100167.13;5408114;26;20344;-73
2024/04/19 11:28:50;;;;;;;;;;;;;;;9.77;100.00;100172.72;5400267;26;19958;-72
2024/04/19 11:31:16;;;;;;;;;;;;;;;9.71;100.00;100169.00;5432925;26;20312;-71
2024/04/19 11:33:41;;;;;;;;;;;;;;;9.58;100.00;100192.34;5415460;26;19931;-71
2024/04/19 11:36:09;;;;;;;;;;;;;;;9.28;100.00;100203.50;5407924;26;20240;-72
2024/04/19 11:38:35;;;;;;;;;;;;;;;8.71;100.00;100198.38;5425986;26;19944;-70
2024/04/19 11:41:00;;;;;;;;;;;;;;;8.23;100.00;100210.72;5440702;26;19924;-70
2024/04/19 11:43:25;;;;;;;;;;;;;;;8.00;100.00;100208.31;5422680;26;19929;-70
2024/04/19 11:45:51;;;;;;;;;;;;;;;7.62;100.00;100198.75;5409051;26;19933;-71
2024/04/19 11:48:23;;;;;;;;;;;;;;;6.97;100.00;100178.19;5417321;26;19933;-71
2024/04/19 11:50:48;;;;;;;;;;;;;;;6.88;100.00;100170.47;5442681;26;19932;-71
2024/04/19 11:53:13;;;;;;;;;;;;;;;6.81;100.00;100165.88;5436476;26;19949;-71
2024/04/19 11:55:39;;;;;;;;;;;;;;;6.93;100.00;100174.25;5404830;26;19936;-71
2024/04/19 11:58:05;;;;;;;;;;;;;;;7.15;100.00;100171.56;5403698;26;19931;-71
2024/04/19 12:00:33;;;;;;;;;;;;;;;7.55;100.00;100171.09;5439387;26;19924;-71
2024/04/19 12:02:58;;;;;;;;;;;;;;;8.10;100.00;100173.13;5441396;26;19932;-71
2024/04/19 12:05:23;;;;;;;;;;;;;;;8.72;100.00;100175.91;5440037;26;19931;-71